Time;durP1;ratioP1;P1;durP2;ratioP2;P2;SDS_P1;SDS_P2;PMS_P1;PMS_P2;Temp;Humidity;BMP_temperature;BMP_pressure;BME280_temperature;BME280_humidity;BME280_pressure;Samples;Min_cycle;Max_cycle;Signal;HPM_P1;HPM_P2
2022/03/13 00:02:19;;;;;;;22.10;9.73;;;1.10;99.90;;;;;;4970152;28;20143;-81
2022/03/13 00:04:49;;;;;;;21.45;9.20;;;1.10;99.90;;;;;;4955067;29;20031;-79
2022/03/13 00:07:24;;;;;;;28.90;11.77;;;1.00;99.90;;;;;;4970790;29;20079;-79
2022/03/13 00:09:50;;;;;;;27.50;9.30;;;1.00;99.90;;;;;;4970265;29;20083;-81
2022/03/13 00:12:24;;;;;;;21.23;9.10;;;1.00;99.90;;;;;;4967726;29;20020;-80
2022/03/13 00:14:51;;;;;;;29.05;10.60;;;1.00;99.90;;;;;;4955094;29;20055;-79
2022/03/13 00:17:17;;;;;;;25.90;10.43;;;1.00;99.90;;;;;;4952989;29;20031;-80
2022/03/13 00:19:44;;;;;;;21.85;8.93;;;0.90;99.90;;;;;;4952052;29;20028;-80
2022/03/13 00:22:12;;;;;;;18.67;7.90;;;0.80;99.90;;;;;;4968016;29;20028;-79
2022/03/13 00:24:38;;;;;;;29.92;10.45;;;0.70;99.90;;;;;;4953146;29;20023;-82
2022/03/13 00:27:07;;;;;;;23.20;9.13;;;0.80;99.90;;;;;;4967639;28;20028;-80
2022/03/13 00:29:33;;;;;;;26.17;10.32;;;0.70;99.90;;;;;;4952417;29;20024;-80
2022/03/13 00:31:59;;;;;;;25.45;10.00;;;0.70;99.90;;;;;;4968212;29;20032;-80
2022/03/13 00:34:24;;;;;;;24.13;10.98;;;0.70;99.90;;;;;;4954170;29;20020;-80
2022/03/13 00:36:50;;;;;;;18.95;8.18;;;0.70;99.90;;;;;;4967748;29;20059;-80
2022/03/13 00:39:16;;;;;;;27.60;9.90;;;0.70;99.90;;;;;;4949968;29;20034;-79
2022/03/13 00:41:42;;;;;;;23.27;11.20;;;1.80;99.90;;;;;;4953770;29;20048;-80
2022/03/13 00:44:08;;;;;;;29.92;10.90;;;0.60;99.90;;;;;;4966525;29;20020;-79
2022/03/13 00:46:34;;;;;;;32.20;13.30;;;0.60;99.90;;;;;;4951726;29;20027;-80
2022/03/13 00:49:00;;;;;;;31.77;12.80;;;0.60;99.90;;;;;;4967951;29;20121;-79
2022/03/13 00:51:25;;;;;;;25.85;11.77;;;0.70;99.90;;;;;;4951049;29;20020;-80
2022/03/13 00:53:51;;;;;;;20.67;8.90;;;0.70;99.90;;;;;;4966928;29;20031;-80
2022/03/13 00:56:17;;;;;;;21.33;8.80;;;0.60;99.90;;;;;;4967456;29;20023;-81
2022/03/13 00:58:43;;;;;;;27.33;9.63;;;0.50;99.90;;;;;;4965644;28;20043;-80
2022/03/13 01:01:11;;;;;;;26.60;10.02;;;0.50;99.90;;;;;;4964283;29;20042;-82
2022/03/13 01:03:36;;;;;;;26.42;9.82;;;0.60;99.90;;;;;;4963423;29;20024;-81
2022/03/13 01:06:06;;;;;;;31.73;12.57;;;0.70;99.90;;;;;;4949936;29;20087;-80
2022/03/13 01:08:32;;;;;;;23.67;9.35;;;0.60;99.90;;;;;;4941969;29;20122;-79
2022/03/13 01:10:59;;;;;;;26.23;11.95;;;0.60;99.90;;;;;;4944823;29;20678;-79
2022/03/13 01:13:24;;;;;;;26.83;10.90;;;0.70;99.90;;;;;;4958646;29;20587;-82
2022/03/13 01:15:59;;;;;;;29.48;10.82;;;0.90;99.90;;;;;;4939129;29;20084;-82
2022/03/13 01:18:25;;;;;;;30.50;10.80;;;1.00;99.90;;;;;;4946084;28;20020;-80
2022/03/13 01:20:51;;;;;;;26.52;10.57;;;1.00;99.90;;;;;;4955575;29;20031;-79
2022/03/13 01:23:17;;;;;;;24.67;11.25;;;1.00;99.90;;;;;;4941202;29;20485;-82
2022/03/13 01:25:43;;;;;;;28.30;11.18;;;0.90;99.90;;;;;;4941295;29;20055;-81
2022/03/13 01:28:09;;;;;;;27.30;10.30;;;2.10;99.90;;;;;;4952595;29;20388;-79
2022/03/13 01:30:35;;;;;;;26.95;10.57;;;0.70;99.90;;;;;;4955012;29;20138;-81
2022/03/13 01:33:00;;;;;;;27.33;10.52;;;0.60;99.90;;;;;;4957914;29;20023;-81
2022/03/13 01:35:26;;;;;;;27.60;10.68;;;0.60;99.90;;;;;;4937030;29;20051;-81
2022/03/13 01:37:53;;;;;;;28.75;10.73;;;0.60;99.90;;;;;;4941707;29;20087;-81
2022/03/13 01:40:23;;;;;;;21.30;10.25;;;0.70;99.90;;;;;;4955458;29;20091;-81
2022/03/13 01:42:51;;;;;;;27.35;12.48;;;0.80;99.90;;;;;;4958030;29;20036;-81
2022/03/13 01:45:19;;;;;;;27.77;10.77;;;0.90;99.90;;;;;;4955511;29;20476;-80
2022/03/13 01:47:45;;;;;;;29.00;11.05;;;1.00;99.90;;;;;;4950968;29;20059;-80
2022/03/13 01:50:13;;;;;;;28.38;11.65;;;1.10;99.90;;;;;;4953834;29;20059;-79
2022/03/13 01:52:40;;;;;;;28.48;11.38;;;1.20;99.90;;;;;;4950190;29;20028;-81
2022/03/13 01:55:08;;;;;;;28.15;11.93;;;1.20;99.90;;;;;;4951111;29;20038;-81
2022/03/13 01:57:37;;;;;;;27.58;11.25;;;1.10;99.90;;;;;;4949612;29;20393;-79
2022/03/13 02:00:04;;;;;;;;;;;1.20;99.90;;;;;;4949674;29;20023;-81
2022/03/13 02:02:33;;;;;;;27.73;10.55;;;1.20;99.90;;;;;;4934236;29;19907;-79
2022/03/13 02:04:59;;;;;;;24.88;10.65;;;1.30;99.90;;;;;;4934811;29;20031;-81
2022/03/13 02:07:28;;;;;;;24.88;10.45;;;1.40;99.90;;;;;;4934428;29;20496;-80
2022/03/13 02:09:54;;;;;;;;;;;1.40;99.90;;;;;;4933257;29;20023;-79
2022/03/13 02:12:23;;;;;;;22.02;10.15;;;1.40;99.90;;;;;;4934121;29;20340;-79
2022/03/13 02:14:49;;;;;;;28.40;12.07;;;1.50;99.90;;;;;;4932208;29;20122;-80
2022/03/13 02:17:33;;;;;;;28.33;11.35;;;1.50;99.90;;;;;;4934116;29;20320;-80
2022/03/13 02:19:59;;;;;;;25.13;10.07;;;1.50;99.90;;;;;;4931888;29;20402;-79
2022/03/13 02:22:25;;;;;;;24.23;10.15;;;1.60;99.90;;;;;;4933294;29;20648;-79
2022/03/13 02:24:51;;;;;;;28.13;10.02;;;1.60;99.90;;;;;;4933605;29;20028;-80
2022/03/13 02:27:21;;;;;;;25.90;10.38;;;1.60;99.90;;;;;;4934430;29;20523;-81
2022/03/13 02:29:47;;;;;;;23.02;9.55;;;1.70;99.90;;;;;;4934764;29;20255;-81
2022/03/13 02:32:13;;;;;;;23.17;10.85;;;1.60;99.90;;;;;;4936100;28;20677;-80
2022/03/13 02:34:40;;;;;;;32.78;10.57;;;1.70;99.90;;;;;;4935864;29;20525;-80
2022/03/13 02:37:19;;;;;;;26.30;10.70;;;1.70;99.90;;;;;;4937798;29;20043;-81
2022/03/13 02:39:44;;;;;;;22.37;10.37;;;1.80;99.90;;;;;;4951153;29;20397;-81
2022/03/13 02:42:10;;;;;;;25.10;10.15;;;1.80;99.90;;;;;;4951955;28;20286;-79
2022/03/13 02:44:36;;;;;;;27.38;10.82;;;1.90;99.90;;;;;;4939325;29;20199;-80
2022/03/13 02:47:05;;;;;;;22.30;9.95;;;1.90;99.90;;;;;;4954462;29;20028;-82
2022/03/13 02:49:32;;;;;;;28.60;12.27;;;2.00;99.90;;;;;;4953568;28;20230;-80
2022/03/13 02:52:02;;;;;;;28.73;11.15;;;2.00;99.90;;;;;;4944849;29;20063;-82
2022/03/13 02:54:28;;;;;;;25.92;10.73;;;2.00;99.90;;;;;;4954319;28;20035;-82
2022/03/13 02:56:54;;;;;;;23.77;10.55;;;2.00;99.90;;;;;;4958641;28;20042;-81
2022/03/13 02:59:20;;;;;;;26.73;10.25;;;2.00;99.90;;;;;;4958651;28;20066;-80
2022/03/13 03:01:46;;;;;;;27.88;10.55;;;2.00;99.90;;;;;;4950020;29;20024;-80
2022/03/13 03:04:12;;;;;;;33.35;11.82;;;2.00;99.90;;;;;;4948412;29;20087;-80
2022/03/13 03:06:48;;;;;;;21.40;10.27;;;3.90;99.90;;;;;;4951253;29;20023;-81
2022/03/13 03:09:16;;;;;;;25.45;10.18;;;2.00;99.90;;;;;;4966035;28;20032;-79
2022/03/13 03:11:43;;;;;;;25.95;10.93;;;1.90;99.90;;;;;;4948868;29;20481;-80
2022/03/13 03:14:09;;;;;;;24.95;10.38;;;1.90;99.90;;;;;;4947863;29;20028;-80
2022/03/13 03:16:35;;;;;;;23.02;10.50;;;2.00;99.90;;;;;;4947097;29;20495;-80
2022/03/13 03:19:01;;;;;;;28.05;11.32;;;2.00;99.90;;;;;;4958114;28;20098;-81
2022/03/13 03:21:26;;;;;;;24.70;11.18;;;1.90;99.90;;;;;;4947058;29;20024;-79
2022/03/13 03:23:52;;;;;;;22.80;9.68;;;1.90;99.90;;;;;;4950189;29;20023;-82
2022/03/13 03:26:18;;;;;;;31.00;10.60;;;1.80;99.90;;;;;;4953093;29;20028;-82
2022/03/13 03:28:44;;;;;;;23.90;9.95;;;1.70;99.90;;;;;;4950135;29;20028;-80
2022/03/13 03:31:10;;;;;;;29.98;12.55;;;1.60;99.90;;;;;;4947387;29;20055;-80
2022/03/13 03:33:36;;;;;;;30.25;11.32;;;1.60;99.90;;;;;;4946493;29;20052;-82
2022/03/13 03:36:02;;;;;;;26.33;10.07;;;1.50;99.90;;;;;;4946317;29;20032;-81
2022/03/13 03:38:27;;;;;;;22.17;9.90;;;1.50;99.90;;;;;;4947588;29;20052;-79
2022/03/13 03:40:53;;;;;;;31.45;12.32;;;1.40;99.90;;;;;;4947417;29;20028;-79
2022/03/13 03:43:19;;;;;;;26.52;11.43;;;1.40;99.90;;;;;;4948650;29;20087;-80
2022/03/13 03:45:44;;;;;;;27.67;12.40;;;1.40;99.90;;;;;;4946747;29;20023;-82
2022/03/13 03:48:10;;;;;;;23.30;11.07;;;1.40;99.90;;;;;;4944117;29;20058;-81
2022/03/13 03:50:37;;;;;;;24.95;11.38;;;1.40;99.90;;;;;;4944822;29;20028;-80
2022/03/13 03:53:02;;;;;;;26.05;11.88;;;1.30;99.90;;;;;;4961175;28;20024;-81
2022/03/13 03:55:28;;;;;;;26.05;11.77;;;1.30;99.90;;;;;;4945171;29;20040;-82
2022/03/13 03:57:54;;;;;;;26.10;10.60;;;1.20;99.90;;;;;;4945559;29;20047;-82
2022/03/13 04:00:24;;;;;;;25.35;9.90;;;1.10;99.90;;;;;;4942591;29;20020;-80
2022/03/13 04:02:50;;;;;;;28.70;10.40;;;1.10;99.90;;;;;;4945860;29;20024;-81
2022/03/13 04:05:16;;;;;;;27.05;9.35;;;1.00;99.90;;;;;;4947266;29;20036;-82
2022/03/13 04:07:41;;;;;;;24.67;9.85;;;1.00;99.90;;;;;;4949196;29;20473;-79
2022/03/13 04:10:09;;;;;;;23.98;10.45;;;0.90;99.90;;;;;;4947554;29;20028;-81
2022/03/13 04:12:35;;;;;;;22.42;9.30;;;1.00;99.90;;;;;;4945721;29;20031;-81
2022/03/13 04:15:04;;;;;;;29.75;10.77;;;1.00;99.90;;;;;;4940467;29;20389;-81
2022/03/13 04:17:31;;;;;;;25.15;10.00;;;1.00;99.90;;;;;;4943968;29;20043;-80
2022/03/13 04:19:58;;;;;;;29.40;11.88;;;1.00;99.90;;;;;;4944232;29;20070;-80
2022/03/13 04:22:23;;;;;;;23.05;10.30;;;1.00;99.90;;;;;;4943461;29;20019;-82
2022/03/13 04:24:49;;;;;;;22.92;10.10;;;1.00;99.90;;;;;;4945317;29;20377;-80
2022/03/13 04:27:15;;;;;;;24.85;10.93;;;0.90;99.90;;;;;;4960259;28;20067;-81
2022/03/13 04:29:41;;;;;;;25.95;10.65;;;1.00;99.90;;;;;;4944766;29;20051;-80
2022/03/13 04:32:08;;;;;;;30.10;11.23;;;1.00;99.90;;;;;;4960144;28;20031;-79
2022/03/13 04:34:35;;;;;;;27.25;11.60;;;1.00;99.90;;;;;;4959415;28;20043;-80
2022/03/13 04:37:01;;;;;;;27.27;9.98;;;1.10;99.90;;;;;;4955431;28;20051;-81
2022/03/13 04:39:28;;;;;;;23.55;10.07;;;1.30;99.90;;;;;;4940883;29;20263;-81
2022/03/13 04:41:54;;;;;;;26.48;10.07;;;1.40;99.90;;;;;;4939529;29;20106;-81
2022/03/13 04:44:21;;;;;;;22.88;9.48;;;1.40;99.90;;;;;;4956610;28;20087;-80
2022/03/13 04:46:47;;;;;;;24.52;11.63;;;1.40;99.90;;;;;;4941178;29;20103;-82
2022/03/13 04:49:13;;;;;;;22.08;9.52;;;1.60;99.90;;;;;;4943035;29;20059;-81
2022/03/13 04:51:39;;;;;;;27.52;11.13;;;1.50;99.90;;;;;;4959260;28;20103;-80
2022/03/13 04:54:09;;;;;;;25.83;11.13;;;1.60;99.90;;;;;;4944066;29;20027;-82
2022/03/13 04:56:34;;;;;;;;;;;1.60;99.90;;;;;;4943829;29;20027;-82
2022/03/13 04:59:00;;;;;;;21.63;10.13;;;1.70;99.90;;;;;;4942651;29;19914;-80
2022/03/13 05:01:26;;;;;;;25.88;11.02;;;1.80;99.90;;;;;;4958311;28;20143;-80
2022/03/13 05:03:52;;;;;;;25.73;9.75;;;1.80;99.90;;;;;;4942610;29;20507;-81
2022/03/13 05:06:18;;;;;;;25.17;10.32;;;1.80;99.90;;;;;;4942288;29;20070;-81
2022/03/13 05:08:44;;;;;;;25.65;9.73;;;1.90;99.90;;;;;;4942714;29;20031;-80
2022/03/13 05:11:10;;;;;;;30.73;11.70;;;2.00;99.90;;;;;;4943871;29;20043;-81
2022/03/13 05:13:36;;;;;;;29.48;11.88;;;1.90;99.90;;;;;;4960804;28;20051;-81
2022/03/13 05:16:02;;;;;;;29.65;11.13;;;1.90;99.90;;;;;;4945004;29;20106;-81
2022/03/13 05:18:29;;;;;;;27.25;10.13;;;1.90;99.90;;;;;;4944485;29;20420;-80
2022/03/13 05:20:55;;;;;;;23.15;9.55;;;1.90;99.90;;;;;;4941766;29;20027;-82
2022/03/13 05:23:20;;;;;;;22.20;9.73;;;2.00;99.90;;;;;;4943333;29;20038;-82
2022/03/13 05:25:47;;;;;;;24.67;10.93;;;2.00;99.90;;;;;;4944099;29;20318;-81
2022/03/13 05:28:12;;;;;;;32.83;11.23;;;2.00;99.90;;;;;;4940840;29;20035;-81
2022/03/13 05:30:39;;;;;;;27.13;11.65;;;2.10;99.90;;;;;;4957742;28;20219;-80
2022/03/13 05:33:06;;;;;;;27.17;11.23;;;2.20;99.90;;;;;;4943568;29;20024;-82
2022/03/13 05:35:32;;;;;;;26.98;10.95;;;2.30;99.90;;;;;;4943868;29;20047;-82
2022/03/13 05:37:59;;;;;;;31.40;11.35;;;2.40;99.90;;;;;;4942072;29;20051;-82
2022/03/13 05:40:25;;;;;;;25.55;9.73;;;2.40;99.90;;;;;;4958472;29;20382;-82
2022/03/13 05:42:58;;;;;;;28.25;11.18;;;2.50;99.90;;;;;;4944259;29;20031;-81
2022/03/13 05:45:28;;;;;;;30.85;10.90;;;2.50;99.90;;;;;;4957085;28;20034;-80
2022/03/13 05:48:05;;;;;;;25.38;10.65;;;2.60;99.90;;;;;;4956555;28;20396;-80
2022/03/13 05:50:30;;;;;;;22.52;9.63;;;2.60;99.90;;;;;;4941215;29;20055;-81
2022/03/13 05:52:56;;;;;;;29.13;11.75;;;2.60;99.90;;;;;;4938761;29;20034;-80
2022/03/13 05:55:25;;;;;;;27.95;11.48;;;2.70;99.90;;;;;;4939699;29;20024;-82
2022/03/13 05:57:52;;;;;;;25.73;10.63;;;2.80;99.90;;;;;;4954267;28;20043;-82
2022/03/13 06:00:20;;;;;;;28.20;10.75;;;2.70;99.90;;;;;;4955138;28;20027;-81
2022/03/13 06:02:47;;;;;;;28.10;11.55;;;2.80;99.90;;;;;;4954587;28;20034;-80
2022/03/13 06:05:14;;;;;;;26.38;11.52;;;2.90;99.90;;;;;;4938477;29;20026;-82
2022/03/13 06:07:40;;;;;;;25.25;10.77;;;2.90;99.90;;;;;;4953491;28;20024;-80
2022/03/13 06:10:08;;;;;;;22.70;11.77;;;3.00;99.90;;;;;;4937077;29;20027;-82
2022/03/13 06:12:35;;;;;;;26.45;11.63;;;3.00;99.90;;;;;;4951541;28;20020;-81
2022/03/13 06:15:03;;;;;;;22.63;10.52;;;3.00;99.90;;;;;;4935423;29;20443;-81
2022/03/13 06:17:28;;;;;;;25.83;10.93;;;3.10;99.90;;;;;;4935161;29;20102;-81
2022/03/13 06:19:55;;;;;;;26.45;11.55;;;3.20;99.90;;;;;;4933634;29;20028;-80
2022/03/13 06:22:22;;;;;;;26.85;10.75;;;3.20;99.90;;;;;;4949204;28;20035;-81
2022/03/13 06:24:48;;;;;;;28.63;12.40;;;3.20;99.90;;;;;;4949758;28;20597;-81
2022/03/13 06:27:14;;;;;;;24.92;10.52;;;3.30;99.90;;;;;;4949969;28;20024;-80
2022/03/13 06:29:40;;;;;;;21.67;9.32;;;3.30;99.90;;;;;;4951934;28;20024;-81
2022/03/13 06:32:07;;;;;;;21.08;9.57;;;3.40;99.90;;;;;;4938252;29;20027;-82
2022/03/13 06:34:35;;;;;;;26.90;11.27;;;3.40;99.90;;;;;;4938245;29;20023;-82
2022/03/13 06:37:01;;;;;;;24.92;11.27;;;3.60;99.90;;;;;;4938691;29;20051;-82
2022/03/13 06:39:26;;;;;;;23.05;10.10;;;4.20;99.90;;;;;;4939965;29;20038;-82
2022/03/13 06:41:53;;;;;;;27.38;11.18;;;3.70;99.90;;;;;;4942249;29;20056;-81
2022/03/13 06:44:20;;;;;;;39.70;13.55;;;3.70;99.90;;;;;;4941114;29;20042;-81
2022/03/13 06:46:46;;;;;;;62.70;25.38;;;3.70;99.90;;;;;;4939781;29;20117;-81
2022/03/13 06:49:12;;;;;;;47.00;19.15;;;3.80;99.90;;;;;;4940971;29;20528;-80
2022/03/13 06:51:38;;;;;;;34.85;15.35;;;3.90;99.90;;;;;;4941333;29;20035;-81
2022/03/13 06:54:06;;;;;;;26.98;12.85;;;4.10;99.90;;;;;;4959195;28;20081;-82
2022/03/13 06:56:32;;;;;;;26.92;11.43;;;4.20;99.90;;;;;;4956843;28;20028;-82
2022/03/13 06:59:03;;;;;;;24.42;10.40;;;4.30;99.90;;;;;;4947348;29;20036;-81
2022/03/13 07:01:29;;;;;;;31.02;11.57;;;4.40;99.90;;;;;;4946699;29;20055;-81
2022/03/13 07:03:55;;;;;;;25.98;11.85;;;4.50;99.90;;;;;;4961167;28;20032;-82
2022/03/13 07:06:20;;;;;;;32.60;12.73;;;4.50;99.90;;;;;;4942379;29;20024;-80
2022/03/13 07:08:46;;;;;;;40.03;16.67;;;4.30;99.90;;;;;;4940651;29;20114;-81
2022/03/13 07:11:12;;;;;;;41.85;15.88;;;4.40;99.90;;;;;;4940704;29;20285;-80
2022/03/13 07:13:37;;;;;;;37.42;16.10;;;4.60;99.90;;;;;;4936142;29;20417;-82
2022/03/13 07:16:04;;;;;;;37.92;15.93;;;4.70;99.90;;;;;;4940609;29;20056;-81
2022/03/13 07:18:30;;;;;;;36.42;15.88;;;4.80;99.90;;;;;;4952422;29;20666;-81
2022/03/13 07:20:56;;;;;;;33.42;15.48;;;5.10;99.90;;;;;;4952484;28;20512;-81
2022/03/13 07:23:24;;;;;;;28.77;12.25;;;5.30;99.90;;;;;;4937837;29;20035;-79
2022/03/13 07:25:51;;;;;;;32.88;13.68;;;5.40;99.90;;;;;;4952167;28;20040;-81
2022/03/13 07:28:17;;;;;;;33.30;15.75;;;5.50;99.90;;;;;;4946740;29;20034;-81
2022/03/13 07:30:43;;;;;;;29.58;13.65;;;5.70;99.90;;;;;;4946191;29;20043;-80
2022/03/13 07:33:08;;;;;;;33.85;15.20;;;5.80;99.90;;;;;;4957967;29;20034;-79
2022/03/13 07:35:34;;;;;;;30.30;13.52;;;5.80;99.90;;;;;;4942230;29;20047;-80
2022/03/13 07:38:00;;;;;;;53.65;20.08;;;5.90;99.90;;;;;;4967709;29;20050;-82
2022/03/13 07:40:25;;;;;;;79.15;28.27;;;6.00;99.90;;;;;;4952523;29;20015;-78
2022/03/13 07:42:51;;;;;;;71.70;28.50;;;6.00;99.90;;;;;;4953639;29;20067;-82
2022/03/13 07:45:17;;;;;;;75.13;28.92;;;5.90;99.90;;;;;;4967673;29;20137;-82
2022/03/13 07:47:44;;;;;;;82.20;28.27;;;6.00;99.90;;;;;;4952952;29;20056;-79
2022/03/13 07:50:10;;;;;;;47.17;19.13;;;6.30;99.90;;;;;;4953277;29;20631;-82
2022/03/13 07:52:36;;;;;;;60.33;22.85;;;6.60;99.90;;;;;;4951579;29;20055;-82
2022/03/13 07:55:02;;;;;;;60.08;22.90;;;6.70;99.90;;;;;;4952971;29;20027;-78
2022/03/13 07:57:30;;;;;;;39.10;15.43;;;6.80;99.90;;;;;;4951687;29;20043;-83
2022/03/13 07:59:56;;;;;;;28.83;11.75;;;6.80;99.90;;;;;;4952815;29;20029;-78
2022/03/13 08:02:22;;;;;;;25.55;12.05;;;6.60;99.90;;;;;;4955070;29;20047;-79
2022/03/13 08:04:48;;;;;;;27.40;11.43;;;6.50;99.90;;;;;;4953715;29;20029;-84
2022/03/13 08:07:14;;;;;;;21.60;9.90;;;6.50;99.90;;;;;;4951288;29;20367;-80
2022/03/13 08:09:41;;;;;;;26.13;11.50;;;6.60;99.90;;;;;;4944106;29;20020;-79
2022/03/13 08:12:07;;;;;;;26.42;12.75;;;6.70;99.90;;;;;;4946998;29;20024;-78
2022/03/13 08:14:33;;;;;;;22.58;11.27;;;6.70;99.90;;;;;;4954194;29;20008;-79
2022/03/13 08:17:19;;;;;;;23.25;10.68;;;6.70;99.90;;;;;;4952475;29;20358;-78
2022/03/13 08:19:46;;;;;;;26.98;10.40;;;6.90;99.90;;;;;;4953615;29;20433;-78
2022/03/13 08:22:16;;;;;;;21.83;9.98;;;6.80;99.90;;;;;;4970607;28;20019;-80
2022/03/13 08:24:42;;;;;;;26.27;11.40;;;6.80;99.90;;;;;;4951480;29;20060;-80
2022/03/13 08:27:08;;;;;;;24.05;10.75;;;6.90;99.90;;;;;;4953402;29;20020;-81
2022/03/13 08:29:34;;;;;;;26.30;10.57;;;7.10;99.90;;;;;;4949538;29;20024;-82
2022/03/13 08:31:59;;;;;;;20.88;10.32;;;7.30;99.90;;;;;;4948470;29;20055;-82
2022/03/13 08:34:28;;;;;;;24.42;10.52;;;7.50;99.90;;;;;;4919567;29;20355;-81
2022/03/13 08:36:53;;;;;;;24.38;11.40;;;8.00;99.90;;;;;;4933900;29;20051;-80
2022/03/13 08:39:19;;;;;;;23.52;10.23;;;7.60;99.90;;;;;;4959947;29;20063;-80
2022/03/13 08:41:45;;;;;;;27.35;11.80;;;7.50;99.90;;;;;;4959443;29;20113;-79
2022/03/13 08:44:11;;;;;;;25.15;10.68;;;7.50;99.90;;;;;;4945045;29;20031;-79
2022/03/13 08:46:38;;;;;;;23.95;9.30;;;7.60;99.90;;;;;;4948317;29;20020;-82
2022/03/13 08:49:04;;;;;;;24.17;10.43;;;7.90;99.90;;;;;;4943909;29;20074;-80
2022/03/13 08:51:30;;;;;;;24.42;10.05;;;8.20;98.20;;;;;;4948265;29;20020;-81
2022/03/13 08:53:56;;;;;;;22.88;10.43;;;7.80;95.00;;;;;;4948879;29;20034;-83
2022/03/13 08:56:22;;;;;;;22.63;9.38;;;8.70;93.30;;;;;;4966830;28;20035;-80
2022/03/13 08:58:54;;;;;;;23.80;10.02;;;8.90;92.80;;;;;;4955635;29;20036;-80
2022/03/13 09:01:24;;;;;;;20.80;9.77;;;8.90;88.60;;;;;;4953776;29;20031;-80
2022/03/13 09:03:51;;;;;;;24.35;9.27;;;9.10;89.50;;;;;;4965805;29;20036;-81
2022/03/13 09:06:16;;;;;;;26.70;9.73;;;9.10;86.70;;;;;;4967828;29;20035;-81
2022/03/13 09:08:42;;;;;;;25.90;11.02;;;9.10;89.80;;;;;;4959818;29;20390;-79
2022/03/13 09:11:09;;;;;;;22.35;9.48;;;9.10;90.10;;;;;;4939986;29;20028;-79
2022/03/13 09:13:38;;;;;;;21.35;10.43;;;9.00;86.20;;;;;;4930437;29;20020;-81
2022/03/13 09:16:05;;;;;;;18.67;9.25;;;9.20;87.40;;;;;;4930795;29;20056;-80
2022/03/13 09:18:30;;;;;;;20.80;9.10;;;9.50;87.20;;;;;;4920108;29;20115;-80
2022/03/13 09:21:00;;;;;;;21.83;9.82;;;9.90;83.30;;;;;;4914264;29;20485;-80
2022/03/13 09:23:27;;;;;;;22.85;10.38;;;10.20;83.70;;;;;;4918126;29;20032;-80
2022/03/13 09:25:53;;;;;;;22.45;11.23;;;10.40;79.40;;;;;;4935741;29;20028;-82
2022/03/13 09:28:20;;;;;;;24.55;11.35;;;10.20;80.20;;;;;;4933517;29;20115;-81
2022/03/13 09:30:46;;;;;;;25.35;8.88;;;10.30;80.60;;;;;;4917192;29;20028;-81
2022/03/13 09:33:12;;;;;;;22.48;9.77;;;10.50;79.30;;;;;;4920530;29;20024;-82
2022/03/13 09:35:38;;;;;;;22.98;9.43;;;10.40;75.70;;;;;;4919042;29;20497;-81
2022/03/13 09:38:04;;;;;;;27.83;11.50;;;10.40;76.80;;;;;;4928966;29;20052;-78
2022/03/13 09:40:33;;;;;;;29.17;10.63;;;10.40;78.20;;;;;;4939569;29;20049;-83
2022/03/13 09:43:00;;;;;;;23.83;10.65;;;10.50;75.50;;;;;;4926833;29;20296;-81
2022/03/13 09:45:27;;;;;;;26.27;12.73;;;10.60;74.10;;;;;;4936780;29;20037;-83
2022/03/13 09:47:54;;;;;;;23.88;12.27;;;10.70;74.50;;;;;;4954924;29;20031;-80
2022/03/13 09:50:24;;;;;;;21.45;9.10;;;10.90;73.70;;;;;;4952641;29;20042;-82
2022/03/13 09:52:49;;;;;;;24.42;10.95;;;11.10;73.10;;;;;;4954260;28;20027;-81
2022/03/13 09:55:16;;;;;;;22.45;11.40;;;11.10;71.90;;;;;;4934913;29;20030;-80
2022/03/13 10:00:54;;;;;;;23.05;10.57;;;11.30;70.90;;;;;;5220418;23;20143;-80
2022/03/13 10:03:20;;;;;;;20.90;9.80;;;11.40;71.40;;;;;;4931879;29;20119;-82
2022/03/13 10:05:47;;;;;;;21.92;9.07;;;11.50;71.90;;;;;;4911910;29;20035;-80
2022/03/13 10:08:37;;;;;;;22.15;10.13;;;11.90;69.60;;;;;;4955141;29;20032;-84
2022/03/13 10:11:03;;;;;;;22.08;10.90;;;12.20;67.70;;;;;;4916752;29;20176;-83
2022/03/13 10:14:10;;;;;;;28.38;9.88;;;12.60;67.90;;;;;;4945232;28;20046;-86
2022/03/13 10:16:38;;;;;;;23.77;10.43;;;12.90;65.30;;;;;;4904605;29;20054;-80
2022/03/13 10:19:19;;;;;;;19.73;9.30;;;12.70;64.70;;;;;;4929156;29;20552;-79
2022/03/13 10:22:08;;;;;;;22.48;10.15;;;12.60;64.70;;;;;;4936523;29;20051;-83
2022/03/13 10:24:42;;;;;;;18.92;8.98;;;13.10;66.20;;;;;;4934603;29;20498;-78
2022/03/13 10:27:10;;;;;;;26.02;10.27;;;13.40;65.90;;;;;;4932639;29;20147;-79
2022/03/13 10:29:36;;;;;;;20.75;10.07;;;13.60;65.40;;;;;;4933063;29;20366;-79
2022/03/13 10:32:02;;;;;;;19.52;9.75;;;14.00;64.00;;;;;;4932820;29;20042;-79
2022/03/13 10:34:28;;;;;;;35.80;16.75;;;14.00;62.00;;;;;;4930695;29;20096;-78
2022/03/13 10:36:54;;;;;;;21.08;9.95;;;14.10;63.10;;;;;;4931144;29;20027;-79
2022/03/13 10:39:23;;;;;;;22.83;9.65;;;14.30;62.20;;;;;;4946489;29;20346;-78
2022/03/13 10:41:56;;;;;;;22.17;11.55;;;14.40;62.10;;;;;;4930713;29;20123;-78
2022/03/13 10:44:25;;;;;;;20.88;10.45;;;14.20;60.90;;;;;;4931143;29;20032;-77
2022/03/13 10:47:22;;;;;;;22.30;9.60;;;14.30;60.30;;;;;;4946567;28;20031;-84
2022/03/13 10:49:53;;;;;;;18.80;8.70;;;14.50;59.60;;;;;;5085057;23;20094;-85
2022/03/13 10:52:30;;;;;;;21.77;10.88;;;14.60;60.40;;;;;;4907316;29;20100;-81
2022/03/13 10:54:59;;;;;;;22.45;10.00;;;14.70;58.30;;;;;;4898353;29;20493;-80
2022/03/13 10:57:26;;;;;;;19.33;9.68;;;14.70;57.90;;;;;;4876341;29;20052;-78
2022/03/13 11:00:12;;;;;;;18.45;10.57;;;14.40;59.00;;;;;;4893846;29;20064;-78
2022/03/13 11:02:38;;;;;;;21.60;9.93;;;14.70;59.20;;;;;;4883015;29;20029;-78
2022/03/13 11:05:05;;;;;;;22.08;8.20;;;14.70;57.40;;;;;;4875009;29;20021;-78
2022/03/13 11:07:31;;;;;;;19.20;8.07;;;14.80;57.60;;;;;;4873138;29;20048;-78
2022/03/13 11:09:57;;;;;;;19.65;8.73;;;14.70;57.50;;;;;;4874590;29;20048;-78
2022/03/13 11:12:28;;;;;;;19.90;8.68;;;14.70;56.40;;;;;;4873146;29;20398;-78
2022/03/13 11:15:00;;;;;;;16.98;8.70;;;14.80;58.20;;;;;;4877759;29;20115;-82
2022/03/13 11:17:32;;;;;;;19.85;10.25;;;14.90;58.60;;;;;;4893057;29;20349;-79
2022/03/13 11:20:00;;;;;;;21.73;9.32;;;15.30;57.60;;;;;;4891410;29;20165;-78
2022/03/13 11:22:29;;;;;;;18.20;9.57;;;15.50;56.60;;;;;;4874502;29;20112;-78
2022/03/13 11:24:57;;;;;;;19.33;7.88;;;15.80;55.90;;;;;;4873469;29;20026;-78
2022/03/13 11:27:45;;;;;;;17.65;7.97;;;15.90;56.40;;;;;;4872450;29;20044;-78
2022/03/13 11:30:17;;;;;;;16.88;9.02;;;16.00;54.60;;;;;;4887141;29;20116;-78
2022/03/13 11:32:49;;;;;;;18.77;9.18;;;16.00;55.60;;;;;;4872775;29;20032;-78
2022/03/13 11:35:14;;;;;;;19.42;8.93;;;16.00;55.10;;;;;;4872734;29;20036;-78
2022/03/13 11:37:48;;;;;;;16.20;8.50;;;16.10;54.30;;;;;;4873283;29;20045;-78
2022/03/13 11:40:17;;;;;;;16.23;7.07;;;16.20;54.80;;;;;;4874182;29;20298;-78
2022/03/13 11:42:54;;;;;;;16.48;8.25;;;16.30;54.50;;;;;;4873571;29;20045;-78
2022/03/13 11:45:30;;;;;;;13.75;7.03;;;16.00;53.00;;;;;;4879534;29;20029;-78
2022/03/13 11:48:19;;;;;;;13.52;7.03;;;15.90;52.40;;;;;;4883450;29;20044;-78
2022/03/13 11:51:11;;;;;;;11.07;5.63;;;15.90;51.80;;;;;;4851326;29;20049;-82
2022/03/13 11:53:39;;;;;;;14.65;6.55;;;16.20;52.60;;;;;;4901058;29;20083;-84
2022/03/13 11:56:11;;;;;;;13.30;6.03;;;15.90;52.60;;;;;;4897169;29;20035;-78
2022/03/13 11:58:47;;;;;;;12.95;6.57;;;16.20;51.10;;;;;;4906698;29;20096;-81
2022/03/13 12:01:23;;;;;;;13.52;7.00;;;16.40;50.70;;;;;;4900068;29;20334;-84
2022/03/13 12:04:04;;;;;;;11.52;6.10;;;16.50;51.60;;;;;;4915937;29;20033;-80
2022/03/13 12:06:56;;;;;;;13.23;6.82;;;16.70;50.70;;;;;;4915654;29;20016;-85
2022/03/13 12:09:42;;;;;;;14.30;6.13;;;16.80;49.90;;;;;;4906344;29;20032;-80
2022/03/13 12:12:18;;;;;;;14.75;6.20;;;16.50;49.60;;;;;;4911072;29;20112;-83
2022/03/13 12:14:57;;;;;;;11.88;5.95;;;16.40;49.60;;;;;;4900585;29;20033;-82
2022/03/13 12:17:27;;;;;;;12.52;6.63;;;16.60;50.00;;;;;;4913361;29;20129;-83
2022/03/13 12:20:03;;;;;;;10.68;5.72;;;16.90;49.20;;;;;;4917997;29;20037;-86
2022/03/13 12:22:31;;;;;;;12.70;6.43;;;17.50;48.10;;;;;;4900494;29;20043;-80
2022/03/13 12:25:00;;;;;;;13.73;6.40;;;17.40;48.60;;;;;;4909176;29;20036;-80
2022/03/13 12:27:26;;;;;;;17.23;8.32;;;17.80;47.60;;;;;;4898037;29;20033;-87
2022/03/13 12:29:57;;;;;;;12.95;6.47;;;18.40;47.40;;;;;;4902241;29;20155;-81
2022/03/13 12:35:29;;;;;;;11.82;6.40;;;18.50;46.90;;;;;;4076653;23;20448;-83
2022/03/13 12:37:58;;;;;;;10.40;6.03;;;19.40;46.30;;;;;;4970304;28;20039;-81
2022/03/13 12:40:24;;;;;;;12.82;6.50;;;19.70;45.20;;;;;;4969776;28;20471;-81
2022/03/13 12:42:55;;;;;;;13.95;6.95;;;19.50;45.00;;;;;;4970224;28;20057;-82
2022/03/13 12:45:22;;;;;;;15.02;5.93;;;19.30;44.70;;;;;;4970271;28;20113;-81
2022/03/13 12:47:55;;;;;;;11.95;6.10;;;19.10;45.00;;;;;;4975051;28;20085;-79
2022/03/13 12:50:25;;;;;;;10.65;6.22;;;18.70;46.00;;;;;;4969002;28;20062;-81